Airfield :
LOGIN :

Register | Disclaimer

   EN    FR    IT 

 










Legend :    VFR   Marginal VFR   IFR   Intensive IFR   Very Intensive IFR
Visi :
Ceiling :
>= 8 km
>= 3000ft
5 to 8 km
1000 to 3000 ft
1500m to 5 km
500 to 1000 ft
800 to 1500m
200 to 500 ft
< 800m
< 200 ft
Symbols :   Thunderstorms  Fog  Heavy snow  Heavy precipitations  Wind > 20 kt
SIGMETs :     Misc.  Thunderstorms  Icing  Turbulence  Mountain Waves  Volcanic Ashes







- Airport Elevation : 286 ft
- IATA code : FFD


EGVA - RAF Fairford

CURRENT METAR :
  • 231336Z 22015G24KT 9999 BKN017 OVC023 13/10 A2985 RMK AO2A SLP113 RVRNO $

EXPIRED METARs :
  • 231316Z 23018G21KT M M BKN020 BKN027 BKN036 13/10 A2986 RMK AO2A CIG 018V025 SLP116 RVRNO $
  • 231311Z 23016G23KT 9999 SCT017 BKN023 BKN027 OVC036 13/10 A2986 RMK AO2A CIG 018V023 CIG 020 RWY09 SLP116 RVRNO $
  • 231301Z 23016G26KT 9999 BKN018 BKN026 OVC033 14/11 A2986 RMK AO2A CIG 018V022 SLP116 RVRNO $
  • 231251Z AUTO 23015G21KT M M SCT017 BKN022 BKN028 OVC033 14/11 A2987 RMK AO2 CIG 019V024 SLP119 RVRNO $
  • 231241Z AUTO 23016KT M M SCT017 BKN024 OVC033 13/11 A2987 RMK AO2 CIG 017V024 SLP119 RVRNO $
  • 231226Z 23015G23KT 9999 BKN017 BKN023 OVC035 13/11 A2988 RMK AO2A CIG 014V022 SLP123 RVRNO $
  • 231221Z 22018G23KT 9999 BKN016 BKN021 OVC035 13/11 A2987 RMK AO2A SLP119 RVRNO $
  • 231156Z 22016KT 9999 BKN013 OVC022 13/11 A2988 RMK AO2A SLP123 60000 70001 T01290108 10129 20090 58009 RVRNO $
  • 231056Z 21017KT 9999 BKN011 OVC024 12/10 A2990 RMK AO2A SLP130 T01190103 RVRNO $

Expired Forecast.
No reported NOTAMs for that airfield.
1 SIGMET reported for the London FIR (EGTT) :
 
Severe mountain waves
EGTT SIGMET 01 VALID 231130/231530 EGRR
EGTT LONDON FIR SEV MTW FCST WI N4914 W00600 - N5500 W00455 - N5500 E00030 - N4950 W00240 - N4914 W00600 SFC/FL150 STNR NC=



MET'MAP, your aeronautical weather chart ! - Copyright ORBIFLY December 2007 - Disclaimer

ORBIFLY MET'MAP TEAM :

Programming & Development : Alexandra Zaïnal
Concept & Development : Baudouin d'Aumeries
Co-Development & Prog : Marc-Olivier Méhu
Technical & hardware support : Manuel Goepfert

Contact : metmap@orbifly.com




SOURCES & CREDITS :

   NOAA